sensor_id;sensor_type;location;lat;lon;timestamp;pressure;altitude;pressure_sealevel;temperature;humidity
74437;BME280;62868;52.360;30.424;2023-03-13T00:04:02;1022.5;;;0.5;60.1
74437;BME280;62868;52.360;30.424;2023-03-13T00:09:16;1022.5;;;0.5;60.1
74437;BME280;62868;52.360;30.424;2023-03-13T00:14:03;1022.6;;;0.6;60
74437;BME280;62868;52.360;30.424;2023-03-13T00:18:28;1022.7;;;0.6;60
74437;BME280;62868;52.360;30.424;2023-03-13T00:23:52;1022.7;;;0.6;59.9
74437;BME280;62868;52.360;30.424;2023-03-13T00:29:02;1022.8;;;0.6;59.9
74437;BME280;62868;52.360;30.424;2023-03-13T00:34:16;1022.9;;;0.6;59.9
74437;BME280;62868;52.360;30.424;2023-03-13T00:39:03;1023;;;0.5;59.9
74437;BME280;62868;52.360;30.424;2023-03-13T00:43:28;1023.1;;;0.5;59.9
74437;BME280;62868;52.360;30.424;2023-03-13T00:48:52;1023.1;;;0.5;59.8
74437;BME280;62868;52.360;30.424;2023-03-13T00:54:02;1023.2;;;0.5;59.8
74437;BME280;62868;52.360;30.424;2023-03-13T00:59:16;1023.2;;;0.5;59.8
74437;BME280;62868;52.360;30.424;2023-03-13T01:04:01;1023.3;;;0.5;59.7
74437;BME280;62868;52.360;30.424;2023-03-13T01:08:52;1023.3;;;0.5;59.7
74437;BME280;62868;52.360;30.424;2023-03-13T01:13:53;1023.4;;;0.5;59.7
74437;BME280;62868;52.360;30.424;2023-03-13T01:18:28;1023.5;;;0.4;59.7
74437;BME280;62868;52.360;30.424;2023-03-13T01:24:02;1023.5;;;0.2;59.9
74437;BME280;62868;52.360;30.424;2023-03-13T01:29:16;1023.5;;;0;60.1
74437;BME280;62868;52.360;30.424;2023-03-13T01:33:40;1023.6;;;-0.1;60.1
74437;BME280;62868;52.360;30.424;2023-03-13T01:38:52;1023.6;;;-0.3;60.2
74437;BME280;62868;52.360;30.424;2023-03-13T01:44:04;1023.7;;;-0.4;60.2
74437;BME280;62868;52.360;30.424;2023-03-13T01:49:14;1023.8;;;-0.5;60.3
74437;BME280;62868;52.360;30.424;2023-03-13T01:54:17;1024;;;-0.6;60.3
74437;BME280;62868;52.360;30.424;2023-03-13T01:58:38;1024;;;-0.7;60.3
74437;BME280;62868;52.360;30.424;2023-03-13T02:03:28;1024.1;;;-0.7;60.4
74437;BME280;62868;52.360;30.424;2023-03-13T02:08:41;1024.2;;;-0.8;60.4
74437;BME280;62868;52.360;30.424;2023-03-13T02:14:00;1024.3;;;-0.8;60.4
74437;BME280;62868;52.360;30.424;2023-03-13T02:19:17;1024.3;;;-0.9;60.4
74437;BME280;62868;52.360;30.424;2023-03-13T02:23:29;1024.4;;;-0.9;60.4
74437;BME280;62868;52.360;30.424;2023-03-13T02:28:40;1024.4;;;-1;60.4
74437;BME280;62868;52.360;30.424;2023-03-13T02:33:54;1024.4;;;-1.1;60.4
74437;BME280;62868;52.360;30.424;2023-03-13T02:39:02;1024.5;;;-1.1;60.4
74437;BME280;62868;52.360;30.424;2023-03-13T02:44:16;1024.6;;;-1.1;60.4
74437;BME280;62868;52.360;30.424;2023-03-13T02:48:41;1024.6;;;-1.2;60.5
74437;BME280;62868;52.360;30.424;2023-03-13T02:53:50;1024.7;;;-1.2;60.5
74437;BME280;62868;52.360;30.424;2023-03-13T02:58:39;1024.7;;;-1.2;60.5
74437;BME280;62868;52.360;30.424;2023-03-13T03:04:16;1024.8;;;-1.3;60.5
74437;BME280;62868;52.360;30.424;2023-03-13T03:09:14;1024.9;;;-1.3;60.5
74437;BME280;62868;52.360;30.424;2023-03-13T03:13:40;1025;;;-1.3;60.5
74437;BME280;62868;52.360;30.424;2023-03-13T03:18:52;1025.1;;;-1.4;60.4
74437;BME280;62868;52.360;30.424;2023-03-13T03:23:50;1025.1;;;-1.4;60.5
74437;BME280;62868;52.360;30.424;2023-03-13T03:29:02;1025.2;;;-1.5;60.5
74437;BME280;62868;52.360;30.424;2023-03-13T03:34:16;1025.2;;;-1.5;60.5
74437;BME280;62868;52.360;30.424;2023-03-13T03:38:42;1025.3;;;-1.6;60.5
74437;BME280;62868;52.360;30.424;2023-03-13T03:43:52;1025.3;;;-1.6;60.5
74437;BME280;62868;52.360;30.424;2023-03-13T03:48:40;1025.4;;;-1.6;60.5
74437;BME280;62868;52.360;30.424;2023-03-13T03:54:02;1025.5;;;-1.6;60.5
74437;BME280;62868;52.360;30.424;2023-03-13T03:59:14;1025.5;;;-1.7;60.5
74437;BME280;62868;52.360;30.424;2023-03-13T04:03:50;1025.6;;;-1.7;60.5
74437;BME280;62868;52.360;30.424;2023-03-13T04:08:40;1025.7;;;-1.7;60.5
74437;BME280;62868;52.360;30.424;2023-03-13T04:13:50;1025.7;;;-1.7;60.5
74437;BME280;62868;52.360;30.424;2023-03-13T04:19:02;1025.8;;;-1.8;60.5
74437;BME280;62868;52.360;30.424;2023-03-13T04:24:16;1025.9;;;-1.7;60.4
74437;BME280;62868;52.360;30.424;2023-03-13T04:28:52;1025.9;;;-1.8;60.4
74437;BME280;62868;52.360;30.424;2023-03-13T04:33:38;1026;;;-1.8;60.3
74437;BME280;62868;52.360;30.424;2023-03-13T04:39:16;1026;;;-1.8;60.3
74437;BME280;62868;52.360;30.424;2023-03-13T04:44:00;1026.1;;;-1.7;60.2
74437;BME280;62868;52.360;30.424;2023-03-13T04:49:16;1026.1;;;-1.6;60.2
74437;BME280;62868;52.360;30.424;2023-03-13T04:53:40;1026.2;;;-1.5;60.1
74437;BME280;62868;52.360;30.424;2023-03-13T04:59:10;1026.3;;;-1.2;60
74437;BME280;62868;52.360;30.424;2023-03-13T05:03:38;1026.4;;;-0.9;59.8
74437;BME280;62868;52.360;30.424;2023-03-13T05:09:00;1026.4;;;-0.5;59.6
74437;BME280;62868;52.360;30.424;2023-03-13T05:14:14;1026.4;;;-0.3;59.4
74437;BME280;62868;52.360;30.424;2023-03-13T05:19:00;1026.5;;;0;59.1
74437;BME280;62868;52.360;30.424;2023-03-13T05:23:50;1026.6;;;0.3;58.8
74437;BME280;62868;52.360;30.424;2023-03-13T05:28:50;1026.7;;;0.7;58.5
74437;BME280;62868;52.360;30.424;2023-03-13T05:34:04;1026.8;;;0.9;58.2
74437;BME280;62868;52.360;30.424;2023-03-13T05:39:04;1026.8;;;1.1;58.1
74437;BME280;62868;52.360;30.424;2023-03-13T05:43:52;1026.8;;;1.4;57.8
74437;BME280;62868;52.360;30.424;2023-03-13T05:48:52;1026.9;;;1.7;57.6
74437;BME280;62868;52.360;30.424;2023-03-13T05:53:52;1027;;;1.9;57.3
74437;BME280;62868;52.360;30.424;2023-03-13T05:59:02;1027;;;2.1;57.1
74437;BME280;62868;52.360;30.424;2023-03-13T06:04:14;1027;;;2.2;56.9
74437;BME280;62868;52.360;30.424;2023-03-13T06:08:52;1027.1;;;2.4;56.6
74437;BME280;62868;52.360;30.424;2023-03-13T06:13:50;1027.2;;;2.6;56.4
74437;BME280;62868;52.360;30.424;2023-03-13T06:18:38;1027.3;;;2.8;56.2
74437;BME280;62868;52.360;30.424;2023-03-13T06:24:00;1027.4;;;3.1;56
74437;BME280;62868;52.360;30.424;2023-03-13T06:29:14;1027.5;;;3.2;55.8
74437;BME280;62868;52.360;30.424;2023-03-13T06:34:00;1027.7;;;3.4;55.7
74437;BME280;62868;52.360;30.424;2023-03-13T06:38:50;1027.7;;;3.7;55.4
74437;BME280;62868;52.360;30.424;2023-03-13T06:43:38;1027.7;;;3.6;55.2
74437;BME280;62868;52.360;30.424;2023-03-13T06:49:02;1027.7;;;3.7;55.1
74437;BME280;62868;52.360;30.424;2023-03-13T06:54:16;1027.6;;;3.9;54.7
74437;BME280;62868;52.360;30.424;2023-03-13T06:59:02;1027.7;;;4.3;54.4
74437;BME280;62868;52.360;30.424;2023-03-13T07:03:48;1027.8;;;4.4;54.1
74437;BME280;62868;52.360;30.424;2023-03-13T07:08:38;1027.8;;;4.6;53.9
74437;BME280;62868;52.360;30.424;2023-03-13T07:14:02;1027.8;;;4.7;53.8
74437;BME280;62868;52.360;30.424;2023-03-13T07:19:16;1027.9;;;5.1;53.5
74437;BME280;62868;52.360;30.424;2023-03-13T07:24:14;1027.9;;;5.4;53.1
74437;BME280;62868;52.360;30.424;2023-03-13T07:28:29;1027.9;;;5.5;52.9
74437;BME280;62868;52.360;30.424;2023-03-13T07:33:48;1028;;;5.6;52.7
74437;BME280;62868;52.360;30.424;2023-03-13T07:39:00;1028;;;5.7;52.4
74437;BME280;62868;52.360;30.424;2023-03-13T07:44:16;1028.1;;;5.8;52.1
74437;BME280;62868;52.360;30.424;2023-03-13T07:49:02;1028.1;;;5.9;51.8
74437;BME280;62868;52.360;30.424;2023-03-13T07:53:28;1028.1;;;6.1;51.6
74437;BME280;62868;52.360;30.424;2023-03-13T07:58:41;1028.1;;;6.1;51.4
74437;BME280;62868;52.360;30.424;2023-03-13T08:04:02;1028;;;6.2;51
74437;BME280;62868;52.360;30.424;2023-03-13T08:09:16;1028;;;6.2;50.8
74437;BME280;62868;52.360;30.424;2023-03-13T08:14:00;1028.1;;;6.3;50.5
74437;BME280;62868;52.360;30.424;2023-03-13T08:18:51;1028.1;;;6.5;50.1
74437;BME280;62868;52.360;30.424;2023-03-13T08:23:28;1028;;;6.7;49.8
74437;BME280;62868;52.360;30.424;2023-03-13T08:28:51;1028;;;6.7;49.5
74437;BME280;62868;52.360;30.424;2023-03-13T08:34:14;1027.9;;;6.8;49.2
74437;BME280;62868;52.360;30.424;2023-03-13T08:39:03;1027.9;;;7;49
74437;BME280;62868;52.360;30.424;2023-03-13T08:43:52;1027.8;;;7.1;48.8
74437;BME280;62868;52.360;30.424;2023-03-13T08:48:38;1027.8;;;7.1;48.5
74437;BME280;62868;52.360;30.424;2023-03-13T08:54:14;1027.9;;;7.4;48.1
74437;BME280;62868;52.360;30.424;2023-03-13T08:59:14;1028;;;7.6;47.7
74437;BME280;62868;52.360;30.424;2023-03-13T09:04:00;1028;;;7.7;47.6
74437;BME280;62868;52.360;30.424;2023-03-13T09:09:12;1028;;;7.7;47.4
74437;BME280;62868;52.360;30.424;2023-03-13T09:13:29;1027.9;;;7.8;47.2
74437;BME280;62868;52.360;30.424;2023-03-13T09:19:14;1027.8;;;8.2;46.8
74437;BME280;62868;52.360;30.424;2023-03-13T09:24:00;1027.8;;;8.3;46.6
74437;BME280;62868;52.360;30.424;2023-03-13T09:28:28;1027.7;;;8.1;46.4
74437;BME280;62868;52.360;30.424;2023-03-13T09:33:52;1027.6;;;8;46
74437;BME280;62868;52.360;30.424;2023-03-13T09:38:36;1027.7;;;8;45.5
74437;BME280;62868;52.360;30.424;2023-03-13T09:44:11;1027.7;;;7.7;45.3
74437;BME280;62868;52.360;30.424;2023-03-13T09:48:31;1027.7;;;7.3;45.4
74437;BME280;62868;52.360;30.424;2023-03-13T09:53:39;1027.6;;;7.2;45.3
74437;BME280;62868;52.360;30.424;2023-03-13T09:59:14;1027.6;;;7.3;45.1
74437;BME280;62868;52.360;30.424;2023-03-13T10:03:39;1027.6;;;7.4;45
74437;BME280;62868;52.360;30.424;2023-03-13T10:09:15;1027.5;;;7.5;44.8
74437;BME280;62868;52.360;30.424;2023-03-13T10:14:03;1027.4;;;7.7;44.6
74437;BME280;62868;52.360;30.424;2023-03-13T10:18:38;1027.4;;;8;44.3
74437;BME280;62868;52.360;30.424;2023-03-13T10:24:15;1027.4;;;8.5;44
74437;BME280;62868;52.360;30.424;2023-03-13T10:28:28;1027.3;;;8.3;43.8
74437;BME280;62868;52.360;30.424;2023-03-13T10:34:14;1027.1;;;8.2;43.9
74437;BME280;62868;52.360;30.424;2023-03-13T10:39:02;1027.1;;;8.4;43.7
74437;BME280;62868;52.360;30.424;2023-03-13T10:43:51;1027.1;;;8.6;43.6
74437;BME280;62868;52.360;30.424;2023-03-13T10:49:17;1027.1;;;8.5;43.7
74437;BME280;62868;52.360;30.424;2023-03-13T10:54:11;1027;;;8.3;43.8
74437;BME280;62868;52.360;30.424;2023-03-13T10:59:21;1026.9;;;8.3;43.7
74437;BME280;62868;52.360;30.424;2023-03-13T11:04:17;1026.8;;;8.4;43.7
74437;BME280;62868;52.360;30.424;2023-03-13T11:08:33;1026.7;;;8.5;43.6
74437;BME280;62868;52.360;30.424;2023-03-13T11:14:17;1026.7;;;8.4;43.6
74437;BME280;62868;52.360;30.424;2023-03-13T11:18:52;1026.7;;;8.3;43.7
74437;BME280;62868;52.360;30.424;2023-03-13T11:24:18;1026.5;;;8.2;43.8
74437;BME280;62868;52.360;30.424;2023-03-13T11:28:51;1026.4;;;8.1;43.9
74437;BME280;62868;52.360;30.424;2023-03-13T11:33:51;1026.3;;;8;43.9
74437;BME280;62868;52.360;30.424;2023-03-13T11:39:05;1026.3;;;8.2;43.8
74437;BME280;62868;52.360;30.424;2023-03-13T11:43:41;1026.2;;;8.2;43.8
74437;BME280;62868;52.360;30.424;2023-03-13T11:49:21;1026.2;;;8.2;43.9
74437;BME280;62868;52.360;30.424;2023-03-13T11:54:09;1026.2;;;8.2;44
74437;BME280;62868;52.360;30.424;2023-03-13T11:58:54;1026.2;;;8.1;44.2
74437;BME280;62868;52.360;30.424;2023-03-13T12:04:16;1026.1;;;7.9;44.4
74437;BME280;62868;52.360;30.424;2023-03-13T12:08:49;1026.1;;;7.8;44.7
74437;BME280;62868;52.360;30.424;2023-03-13T12:14:03;1026;;;7.8;44.7
74437;BME280;62868;52.360;30.424;2023-03-13T12:19:00;1026;;;8.2;44.5
74437;BME280;62868;52.360;30.424;2023-03-13T12:23:49;1026.1;;;8.5;44.5
74437;BME280;62868;52.360;30.424;2023-03-13T12:29:15;1026.1;;;8.5;44.7
74437;BME280;62868;52.360;30.424;2023-03-13T12:33:29;1025.9;;;8.4;44.9
74437;BME280;62868;52.360;30.424;2023-03-13T12:39:16;1025.8;;;8.5;44.9
74437;BME280;62868;52.360;30.424;2023-03-13T12:44:00;1025.7;;;8.6;44.9
74437;BME280;62868;52.360;30.424;2023-03-13T12:49:51;1025.6;;;8.5;45.1
74437;BME280;62868;52.360;30.424;2023-03-13T12:54:18;1025.4;;;8.6;45
74437;BME280;62868;52.360;30.424;2023-03-13T12:58:50;1025.4;;;8.8;45
74437;BME280;62868;52.360;30.424;2023-03-13T13:04:19;1025.4;;;8.5;45.2
74437;BME280;62868;52.360;30.424;2023-03-13T13:09:06;1025.4;;;8.3;45.4
74437;BME280;62868;52.360;30.424;2023-03-13T13:13:48;1025.4;;;8.3;45.5
74437;BME280;62868;52.360;30.424;2023-03-13T13:19:48;1025.5;;;8.3;45.6
74437;BME280;62868;52.360;30.424;2023-03-13T13:23:29;1025.5;;;8.4;45.6
74437;BME280;62868;52.360;30.424;2023-03-13T13:29:51;1025.4;;;8.6;45.6
74437;BME280;62868;52.360;30.424;2023-03-13T13:34:06;1025.4;;;8.5;45.7
74437;BME280;62868;52.360;30.424;2023-03-13T13:38:29;1025.3;;;8.4;45.8
74437;BME280;62868;52.360;30.424;2023-03-13T13:44:20;1025.1;;;8.4;45.9
74437;BME280;62868;52.360;30.424;2023-03-13T13:49:05;1025;;;8.4;45.8
74437;BME280;62868;52.360;30.424;2023-03-13T13:54:30;1025;;;8.5;45.8
74437;BME280;62868;52.360;30.424;2023-03-13T13:59:24;1025;;;8.5;45.8
74437;BME280;62868;52.360;30.424;2023-03-13T14:03:39;1025;;;8.5;45.9
74437;BME280;62868;52.360;30.424;2023-03-13T14:09:19;1024.9;;;8.4;46
74437;BME280;62868;52.360;30.424;2023-03-13T14:14:22;1024.9;;;8.3;46.1
74437;BME280;62868;52.360;30.424;2023-03-13T14:19:20;1024.8;;;8.1;46.3
74437;BME280;62868;52.360;30.424;2023-03-13T14:24:11;1024.7;;;8;46.5
74437;BME280;62868;52.360;30.424;2023-03-13T14:29:04;1024.6;;;7.9;46.5
74437;BME280;62868;52.360;30.424;2023-03-13T14:34:18;1024.6;;;7.9;46.6
74437;BME280;62868;52.360;30.424;2023-03-13T14:38:28;1024.5;;;7.7;46.8
74437;BME280;62868;52.360;30.424;2023-03-13T14:44:20;1024.5;;;7.6;46.9
74437;BME280;62868;52.360;30.424;2023-03-13T14:49:07;1024.4;;;7.5;47
74437;BME280;62868;52.360;30.424;2023-03-13T14:53:28;1024.4;;;7.5;47.1
74437;BME280;62868;52.360;30.424;2023-03-13T14:59:22;1024.3;;;7.4;47.2
74437;BME280;62868;52.360;30.424;2023-03-13T15:03:54;1024.3;;;7.3;47.3
74437;BME280;62868;52.360;30.424;2023-03-13T15:09:17;1024.2;;;7.3;47.3
74437;BME280;62868;52.360;30.424;2023-03-13T15:14:28;1024.2;;;7.2;47.4
74437;BME280;62868;52.360;30.424;2023-03-13T15:18:48;1024.1;;;7.2;47.5
74437;BME280;62868;52.360;30.424;2023-03-13T15:24:18;1024;;;7.1;47.5
74437;BME280;62868;52.360;30.424;2023-03-13T15:28:52;1024;;;7;47.6
74437;BME280;62868;52.360;30.424;2023-03-13T15:34:16;1024;;;6.9;47.7
74437;BME280;62868;52.360;30.424;2023-03-13T15:39:10;1024;;;6.8;47.8
74437;BME280;62868;52.360;30.424;2023-03-13T15:43:50;1024;;;6.8;47.9
74437;BME280;62868;52.360;30.424;2023-03-13T15:49:18;1023.9;;;6.8;48
74437;BME280;62868;52.360;30.424;2023-03-13T15:53:40;1023.9;;;6.7;48.1
74437;BME280;62868;52.360;30.424;2023-03-13T15:59:08;1023.9;;;6.7;48.1
74437;BME280;62868;52.360;30.424;2023-03-13T16:04:04;1023.8;;;6.7;48.2
74437;BME280;62868;52.360;30.424;2023-03-13T16:08:50;1023.8;;;6.7;48.3
74437;BME280;62868;52.360;30.424;2023-03-13T16:14:20;1023.8;;;6.6;48.4
74437;BME280;62868;52.360;30.424;2023-03-13T16:18:28;1023.8;;;6.6;48.6
74437;BME280;62868;52.360;30.424;2023-03-13T16:24:20;1023.9;;;6.6;48.6
74437;BME280;62868;52.360;30.424;2023-03-13T16:29:08;1023.8;;;6.5;48.8
74437;BME280;62868;52.360;30.424;2023-03-13T16:33:28;1023.8;;;6.4;49
74437;BME280;62868;52.360;30.424;2023-03-13T16:39:16;1023.8;;;6.4;49.1
74437;BME280;62868;52.360;30.424;2023-03-13T16:43:28;1023.8;;;6.3;49.2
74437;BME280;62868;52.360;30.424;2023-03-13T16:49:16;1023.8;;;6.3;49.3
74437;BME280;62868;52.360;30.424;2023-03-13T16:53:53;1023.7;;;6.2;49.5
74437;BME280;62868;52.360;30.424;2023-03-13T16:59:05;1023.7;;;6.2;49.6
74437;BME280;62868;52.360;30.424;2023-03-13T17:04:18;1023.6;;;6.1;49.8
74437;BME280;62868;52.360;30.424;2023-03-13T17:08:40;1023.6;;;6.1;49.9
74437;BME280;62868;52.360;30.424;2023-03-13T17:14:20;1023.6;;;6;50.1
74437;BME280;62868;52.360;30.424;2023-03-13T17:19:04;1023.6;;;6;50.3
74437;BME280;62868;52.360;30.424;2023-03-13T17:24:02;1023.5;;;6;50.4
74437;BME280;62868;52.360;30.424;2023-03-13T17:29:18;1023.5;;;6;50.4
74437;BME280;62868;52.360;30.424;2023-03-13T17:33:28;1023.4;;;6;50.5
74437;BME280;62868;52.360;30.424;2023-03-13T17:39:20;1023.4;;;6;50.7
74437;BME280;62868;52.360;30.424;2023-03-13T17:44:20;1023.3;;;6;50.7
74437;BME280;62868;52.360;30.424;2023-03-13T17:48:38;1023.2;;;5.9;50.9
74437;BME280;62868;52.360;30.424;2023-03-13T17:53:53;1023.1;;;6;50.9
74437;BME280;62868;52.360;30.424;2023-03-13T17:59:02;1023.1;;;6;51
74437;BME280;62868;52.360;30.424;2023-03-13T18:04:06;1023.1;;;6;51.1
74437;BME280;62868;52.360;30.424;2023-03-13T18:09:07;1023;;;6.1;51.1
74437;BME280;62868;52.360;30.424;2023-03-13T18:13:50;1023;;;6;51.3
74437;BME280;62868;52.360;30.424;2023-03-13T18:19:21;1022.9;;;6;51.4
74437;BME280;62868;52.360;30.424;2023-03-13T18:24:04;1022.9;;;6;51.5
74437;BME280;62868;52.360;30.424;2023-03-13T18:28:38;1022.9;;;5.9;51.7
74437;BME280;62868;52.360;30.424;2023-03-13T18:33:38;1022.9;;;5.9;51.8
74437;BME280;62868;52.360;30.424;2023-03-13T18:39:20;1022.9;;;5.9;52
74437;BME280;62868;52.360;30.424;2023-03-13T18:43:42;1022.9;;;5.9;52
74437;BME280;62868;52.360;30.424;2023-03-13T18:49:02;1022.9;;;5.8;52.2
74437;BME280;62868;52.360;30.424;2023-03-13T18:53:42;1022.9;;;5.8;52.3
74437;BME280;62868;52.360;30.424;2023-03-13T18:58:39;1022.8;;;5.8;52.4
74437;BME280;62868;52.360;30.424;2023-03-13T19:03:54;1022.9;;;5.8;52.5
74437;BME280;62868;52.360;30.424;2023-03-13T19:08:51;1022.8;;;5.9;52.5
74437;BME280;62868;52.360;30.424;2023-03-13T19:13:28;1022.8;;;5.9;52.6
74437;BME280;62868;52.360;30.424;2023-03-13T19:19:09;1022.8;;;5.9;52.7
74437;BME280;62868;52.360;30.424;2023-03-13T19:23:51;1022.8;;;5.9;52.7
74437;BME280;62868;52.360;30.424;2023-03-13T19:28:38;1022.8;;;6;52.8
74437;BME280;62868;52.360;30.424;2023-03-13T19:34:04;1022.8;;;6;52.8
74437;BME280;62868;52.360;30.424;2023-03-13T19:39:09;1022.8;;;6;52.9
74437;BME280;62868;52.360;30.424;2023-03-13T19:43:42;1022.7;;;6.1;53
74437;BME280;62868;52.360;30.424;2023-03-13T19:48:53;1022.7;;;6.2;52.9
74437;BME280;62868;52.360;30.424;2023-03-13T19:54:05;1022.6;;;6.2;52.9
74437;BME280;62868;52.360;30.424;2023-03-13T19:59:21;1022.5;;;6.2;52.9
74437;BME280;62868;52.360;30.424;2023-03-13T20:04:20;1022.4;;;6.2;52.9
74437;BME280;62868;52.360;30.424;2023-03-13T20:08:28;1022.4;;;6.2;52.9
74437;BME280;62868;52.360;30.424;2023-03-13T20:14:18;1022.4;;;6.2;53
74437;BME280;62868;52.360;30.424;2023-03-13T20:19:04;1022.4;;;6.2;52.9
74437;BME280;62868;52.360;30.424;2023-03-13T20:23:38;1022.4;;;6.2;52.9
74437;BME280;62868;52.360;30.424;2023-03-13T20:28:50;1022.4;;;6.2;52.9
74437;BME280;62868;52.360;30.424;2023-03-13T20:34:20;1022.4;;;6.2;53
74437;BME280;62868;52.360;30.424;2023-03-13T20:38:28;1022.4;;;6.3;52.9
74437;BME280;62868;52.360;30.424;2023-03-13T20:44:04;1022.3;;;6.4;52.9
74437;BME280;62868;52.360;30.424;2023-03-13T20:49:20;1022.2;;;6.4;52.8
74437;BME280;62868;52.360;30.424;2023-03-13T20:53:28;1022.1;;;6.5;52.7
74437;BME280;62868;52.360;30.424;2023-03-13T20:58:52;1022.1;;;6.6;52.7
74437;BME280;62868;52.360;30.424;2023-03-13T21:04:04;1022;;;6.7;52.6
74437;BME280;62868;52.360;30.424;2023-03-13T21:09:06;1021.9;;;6.7;52.5
74437;BME280;62868;52.360;30.424;2023-03-13T21:14:06;1021.9;;;6.7;52.5
74437;BME280;62868;52.360;30.424;2023-03-13T21:18:38;1021.9;;;6.7;52.5
74437;BME280;62868;52.360;30.424;2023-03-13T21:24:20;1021.8;;;6.7;52.5
74437;BME280;62868;52.360;30.424;2023-03-13T21:29:06;1021.7;;;6.7;52.5
74437;BME280;62868;52.360;30.424;2023-03-13T21:33:39;1021.7;;;6.7;52.5
74437;BME280;62868;52.360;30.424;2023-03-13T21:38:41;1021.6;;;6.7;52.5
74437;BME280;62868;52.360;30.424;2023-03-13T21:44:20;1021.5;;;6.7;52.5
74437;BME280;62868;52.360;30.424;2023-03-13T21:48:52;1021.5;;;6.6;52.5
74437;BME280;62868;52.360;30.424;2023-03-13T21:54:04;1021.3;;;6.6;52.5
74437;BME280;62868;52.360;30.424;2023-03-13T21:59:04;1021.3;;;6.6;52.5
74437;BME280;62868;52.360;30.424;2023-03-13T22:03:38;1021.2;;;6.6;52.5
74437;BME280;62868;52.360;30.424;2023-03-13T22:09:06;1021.3;;;6.6;52.5
74437;BME280;62868;52.360;30.424;2023-03-13T22:13:50;1021.2;;;6.7;52.5
74437;BME280;62868;52.360;30.424;2023-03-13T22:18:38;1021.2;;;6.7;52.5
74437;BME280;62868;52.360;30.424;2023-03-13T22:24:05;1021.1;;;6.7;52.5
74437;BME280;62868;52.360;30.424;2023-03-13T22:29:18;1021;;;6.7;52.5
74437;BME280;62868;52.360;30.424;2023-03-13T22:33:38;1021;;;6.7;52.4
74437;BME280;62868;52.360;30.424;2023-03-13T22:39:04;1020.9;;;6.7;52.5
74437;BME280;62868;52.360;30.424;2023-03-13T22:44:04;1020.8;;;6.7;52.4
74437;BME280;62868;52.360;30.424;2023-03-13T22:49:04;1020.8;;;6.7;52.4
74437;BME280;62868;52.360;30.424;2023-03-13T22:53:52;1020.7;;;6.8;52.3
74437;BME280;62868;52.360;30.424;2023-03-13T22:59:04;1020.5;;;6.9;52.1
74437;BME280;62868;52.360;30.424;2023-03-13T23:04:18;1020.5;;;7;52
74437;BME280;62868;52.360;30.424;2023-03-13T23:09:18;1020.5;;;7;52
74437;BME280;62868;52.360;30.424;2023-03-13T23:13:38;1020.6;;;7.1;51.9
74437;BME280;62868;52.360;30.424;2023-03-13T23:19:18;1020.5;;;7.1;51.8
74437;BME280;62868;52.360;30.424;2023-03-13T23:24:05;1020.5;;;7.2;51.7
74437;BME280;62868;52.360;30.424;2023-03-13T23:28:39;1020.5;;;7.2;51.6
74437;BME280;62868;52.360;30.424;2023-03-13T23:33:48;1020.5;;;7.2;51.6
74437;BME280;62868;52.360;30.424;2023-03-13T23:38:30;1020.5;;;7.2;51.6
74437;BME280;62868;52.360;30.424;2023-03-13T23:43:41;1020.4;;;7.3;51.4
74437;BME280;62868;52.360;30.424;2023-03-13T23:49:04;1020.5;;;7.3;51.2
74437;BME280;62868;52.360;30.424;2023-03-13T23:54:18;1020.4;;;7.4;51
74437;BME280;62868;52.360;30.424;2023-03-13T23:58:40;1020.4;;;7.5;50.9
